Time;durP1;ratioP1;P1;durP2;ratioP2;P2;SDS_P1;SDS_P2;PMS_P1;PMS_P2;Temp;Humidity;BMP_temperature;BMP_pressure;BME280_temperature;BME280_humidity;BME280_pressure;Samples;Min_cycle;Max_cycle;Signal;HPM_P1;HPM_P2
2023/06/20 00:01:06;;;;;;;8.60;6.97;;;22.40;99.90;;;;;;5013968;28;20220;-60
2023/06/20 00:03:33;;;;;;;10.03;7.10;;;22.40;99.90;;;;;;5040605;28;20202;-60
2023/06/20 00:06:00;;;;;;;8.50;6.43;;;22.40;99.90;;;;;;5039327;28;20651;-61
2023/06/20 00:08:26;;;;;;;7.93;6.23;;;22.40;99.90;;;;;;5039286;28;20558;-61
2023/06/20 00:10:53;;;;;;;9.33;7.00;;;22.40;99.90;;;;;;5043057;28;20209;-61
2023/06/20 00:13:20;;;;;;;8.07;6.63;;;22.40;99.90;;;;;;5036941;28;20685;-60
2023/06/20 00:15:47;;;;;;;10.87;6.90;;;22.40;99.90;;;;;;5035281;28;20218;-60
2023/06/20 00:18:14;;;;;;;8.83;6.53;;;22.30;99.90;;;;;;5031320;28;20239;-60
2023/06/20 00:20:41;;;;;;;8.80;7.00;;;22.30;99.90;;;;;;5036625;28;20759;-60
2023/06/20 00:23:08;;;;;;;8.60;6.53;;;22.30;99.90;;;;;;5020849;28;20858;-60
2023/06/20 00:25:35;;;;;;;6.40;5.73;;;22.30;99.90;;;;;;5034963;28;20207;-60
2023/06/20 00:28:02;;;;;;;9.47;6.23;;;22.30;99.90;;;;;;5038220;28;20225;-60
2023/06/20 00:30:29;;;;;;;7.77;6.27;;;22.30;99.90;;;;;;5037991;28;20309;-61
2023/06/20 00:32:58;;;;;;;7.63;6.67;;;22.20;99.90;;;;;;5013649;28;20704;-60
2023/06/20 00:35:26;;;;;;;7.43;6.10;;;22.10;99.90;;;;;;5035035;28;20216;-59
2023/06/20 00:37:53;;;;;;;8.63;6.93;;;22.10;99.90;;;;;;5035818;28;20215;-60
2023/06/20 00:40:21;;;;;;;9.93;6.73;;;22.00;99.90;;;;;;5034935;28;20223;-60
2023/06/20 00:42:47;;;;;;;7.40;6.60;;;22.00;99.90;;;;;;5036280;28;20211;-62
2023/06/20 00:45:30;;;;;;;10.23;6.40;;;22.10;99.90;;;;;;5036895;28;20229;-60
2023/06/20 00:47:58;;;;;;;7.20;6.00;;;22.10;99.90;;;;;;5034233;28;20297;-60
2023/06/20 00:50:27;;;;;;;8.73;6.13;;;22.20;99.90;;;;;;5037029;28;20243;-60
2023/06/20 00:52:58;;;;;;;8.57;6.10;;;22.20;99.90;;;;;;5034063;28;20207;-64
2023/06/20 00:55:27;;;;;;;8.10;6.30;;;22.00;99.90;;;;;;5035005;28;20208;-59
2023/06/20 00:57:57;;;;;;;7.10;6.17;;;22.00;99.90;;;;;;5037708;28;20212;-60
2023/06/20 01:00:29;;;;;;;7.77;6.00;;;22.10;99.90;;;;;;5036738;28;22333;-59
2023/06/20 01:03:02;;;;;;;7.40;5.93;;;22.10;99.90;;;;;;5033768;28;20196;-60
2023/06/20 01:05:30;;;;;;;9.53;6.57;;;22.10;99.90;;;;;;5033778;28;20830;-59
2023/06/20 01:08:13;;;;;;;10.03;6.40;;;22.10;99.90;;;;;;5036223;28;20312;-59
2023/06/20 01:11:38;;;;;;;7.77;6.17;;;22.10;99.90;;;;;;5032707;28;20637;-59
2023/06/20 01:14:31;;;;;;;7.90;6.00;;;22.10;99.90;;;;;;4955733;28;20734;-59
2023/06/20 01:17:03;;;;;;;9.83;6.63;;;22.20;99.90;;;;;;5036096;28;20214;-59
2023/06/20 01:20:12;;;;;;;6.90;6.17;;;22.20;99.90;;;;;;5037771;28;20581;-59
2023/06/20 01:23:02;;;;;;;7.63;6.43;;;22.10;99.90;;;;;;5038272;28;20200;-59
2023/06/20 01:25:40;;;;;;;7.63;6.03;;;22.10;99.90;;;;;;5038493;28;20200;-59
2023/06/20 01:28:38;;;;;;;9.77;6.40;;;22.10;99.90;;;;;;5035559;28;20210;-59
2023/06/20 01:31:24;;;;;;;9.17;5.60;;;21.90;99.90;;;;;;5041147;28;20667;-59
2023/06/20 01:34:07;;;;;;;6.43;5.83;;;21.90;99.90;;;;;;5036217;28;20273;-59
2023/06/20 01:36:46;;;;;;;7.07;5.47;;;22.00;99.90;;;;;;5018521;28;20657;-59
2023/06/20 01:39:17;;;;;;;9.00;7.00;;;22.10;99.90;;;;;;5032000;28;20203;-60
2023/06/20 01:41:46;;;;;;;6.73;6.03;;;22.10;99.90;;;;;;5039776;28;20224;-59
2023/06/20 01:44:14;;;;;;;9.70;6.30;;;22.00;99.90;;;;;;5035030;28;20706;-59
2023/06/20 01:46:42;;;;;;;10.00;7.13;;;22.00;99.90;;;;;;5036743;28;20199;-59
2023/06/20 01:49:12;;;;;;;7.77;5.90;;;22.10;99.90;;;;;;5037291;28;20245;-59
2023/06/20 01:51:40;;;;;;;8.07;5.70;;;22.00;99.90;;;;;;5036891;28;20222;-59
2023/06/20 01:54:08;;;;;;;7.70;5.70;;;22.00;99.90;;;;;;5036266;28;20211;-59
2023/06/20 01:56:36;;;;;;;7.37;6.07;;;21.90;99.90;;;;;;5035495;28;20212;-59
2023/06/20 01:59:04;;;;;;;5.87;5.20;;;22.00;99.90;;;;;;5016976;28;20208;-59
2023/06/20 02:01:32;;;;;;;8.00;6.20;;;22.00;99.90;;;;;;5036550;28;20213;-59
2023/06/20 02:04:00;;;;;;;8.50;6.97;;;22.00;99.90;;;;;;5033586;28;20221;-60
2023/06/20 02:06:29;;;;;;;6.77;6.03;;;22.00;99.90;;;;;;5034172;28;20207;-60
2023/06/20 02:08:57;;;;;;;7.00;6.03;;;22.00;99.90;;;;;;5020577;28;20258;-59
2023/06/20 02:11:24;;;;;;;6.43;5.70;;;21.90;99.90;;;;;;5034572;28;21939;-59
2023/06/20 02:13:52;;;;;;;6.93;5.93;;;22.00;99.90;;;;;;5035823;28;20208;-59
2023/06/20 02:16:21;;;;;;;6.97;6.20;;;21.90;99.90;;;;;;5034059;28;20196;-60
2023/06/20 02:18:49;;;;;;;8.07;6.00;;;21.90;99.90;;;;;;5034823;28;20263;-59
2023/06/20 02:21:22;;;;;;;7.47;6.10;;;22.00;99.90;;;;;;5019990;28;20228;-59
2023/06/20 02:23:52;;;;;;;9.13;6.53;;;22.00;99.90;;;;;;5032269;28;20241;-59
2023/06/20 02:26:24;;;;;;;7.77;5.63;;;21.90;99.90;;;;;;5017025;28;20671;-61
2023/06/20 02:28:59;;;;;;;7.87;5.83;;;21.90;99.90;;;;;;5038702;28;20219;-60
2023/06/20 02:31:30;;;;;;;6.83;5.43;;;22.00;99.90;;;;;;5039410;28;22737;-60
2023/06/20 02:33:58;;;;;;;8.27;6.10;;;22.00;99.90;;;;;;5036245;28;20207;-59
2023/06/20 02:36:28;;;;;;;9.93;5.93;;;21.90;99.90;;;;;;5026190;28;20283;-59
2023/06/20 02:38:56;;;;;;;6.83;5.97;;;21.80;99.90;;;;;;5039392;28;20211;-59
2023/06/20 02:41:24;;;;;;;7.70;6.90;;;21.80;99.90;;;;;;5040186;28;20681;-59
2023/06/20 02:43:51;;;;;;;7.70;6.50;;;21.80;99.90;;;;;;5036617;28;20199;-60
2023/06/20 02:46:29;;;;;;;7.50;5.60;;;21.80;99.90;;;;;;5035714;28;20218;-59
2023/06/20 02:49:23;;;;;;;7.40;6.27;;;22.00;99.90;;;;;;5037818;28;20884;-59
2023/06/20 02:52:08;;;;;;;7.97;6.47;;;22.00;99.90;;;;;;5036768;28;20216;-60
2023/06/20 02:54:53;;;;;;;8.00;6.57;;;22.00;99.90;;;;;;5033463;28;20235;-59
2023/06/20 02:57:21;;;;;;;7.17;6.37;;;22.00;99.90;;;;;;5037634;28;20273;-59
2023/06/20 02:59:54;;;;;;;10.40;6.27;;;22.10;99.90;;;;;;5015587;28;20906;-59
2023/06/20 03:02:25;;;;;;;8.50;6.10;;;22.10;99.90;;;;;;5035595;28;20221;-60
2023/06/20 03:04:56;;;;;;;7.00;5.63;;;22.10;99.90;;;;;;5015297;28;20630;-59
2023/06/20 03:07:26;;;;;;;7.10;5.80;;;22.10;99.90;;;;;;5038067;28;20204;-60
2023/06/20 03:09:55;;;;;;;7.93;6.37;;;22.10;99.90;;;;;;5032621;28;20383;-60
2023/06/20 03:12:23;;;;;;;8.17;6.53;;;22.10;99.90;;;;;;5035892;28;20289;-60
2023/06/20 03:14:49;;;;;;;8.07;6.67;;;22.00;99.90;;;;;;5035494;28;20202;-60
2023/06/20 03:17:16;;;;;;;8.03;7.03;;;22.00;99.90;;;;;;5032545;28;20560;-60
2023/06/20 03:19:43;;;;;;;6.90;6.20;;;21.90;99.90;;;;;;5016868;28;20315;-61
2023/06/20 03:22:10;;;;;;;7.90;6.23;;;21.90;99.90;;;;;;5039304;28;20254;-59
2023/06/20 03:24:37;;;;;;;7.20;5.77;;;21.90;99.90;;;;;;5037351;28;20805;-60
2023/06/20 03:27:04;;;;;;;9.67;6.90;;;22.00;99.90;;;;;;5032285;28;20227;-59
2023/06/20 03:29:32;;;;;;;7.90;6.67;;;21.90;99.90;;;;;;5032562;28;20201;-59
2023/06/20 03:31:59;;;;;;;7.00;6.30;;;21.90;99.90;;;;;;5038094;28;20211;-59
2023/06/20 03:34:26;;;;;;;9.37;7.00;;;21.90;99.90;;;;;;5034552;28;20239;-59
2023/06/20 03:36:53;;;;;;;7.60;6.73;;;21.80;99.90;;;;;;5037356;28;20212;-60
2023/06/20 03:39:20;;;;;;;9.23;6.90;;;21.80;99.90;;;;;;5001941;28;20203;-59
2023/06/20 03:41:47;;;;;;;8.60;7.03;;;21.90;99.90;;;;;;5037235;28;20686;-59
2023/06/20 03:44:13;;;;;;;7.60;6.57;;;21.90;99.90;;;;;;5035303;28;20211;-60
2023/06/20 03:46:40;;;;;;;9.53;6.37;;;21.90;99.90;;;;;;5042480;28;20216;-60
2023/06/20 03:49:07;;;;;;;8.87;7.10;;;21.90;99.90;;;;;;5020820;28;20745;-61
2023/06/20 03:51:34;;;;;;;8.53;6.70;;;21.90;99.90;;;;;;5039802;28;20204;-60
2023/06/20 03:54:01;;;;;;;9.83;6.93;;;21.90;99.90;;;;;;5041546;28;20277;-60
2023/06/20 03:56:28;;;;;;;7.40;6.27;;;22.00;99.90;;;;;;5033518;28;20201;-60
2023/06/20 03:58:55;;;;;;;8.70;6.67;;;22.00;99.90;;;;;;5018597;28;20205;-60
2023/06/20 04:01:24;;;;;;;7.07;5.97;;;21.80;99.90;;;;;;5039144;28;20323;-60
2023/06/20 04:03:53;;;;;;;7.67;6.47;;;21.80;99.90;;;;;;5036453;28;20295;-60
2023/06/20 04:06:20;;;;;;;10.60;6.97;;;21.90;99.90;;;;;;5041320;28;20234;-60
2023/06/20 04:08:47;;;;;;;9.03;6.80;;;22.00;99.90;;;;;;5022915;28;20835;-60
2023/06/20 04:11:14;;;;;;;6.97;6.27;;;22.00;99.90;;;;;;5027386;28;20208;-60
2023/06/20 04:13:41;;;;;;;9.53;7.03;;;22.00;99.90;;;;;;5039502;28;20257;-60
2023/06/20 04:16:07;;;;;;;7.60;6.20;;;22.00;99.90;;;;;;5040992;28;20302;-60
2023/06/20 04:18:34;;;;;;;8.53;7.53;;;22.00;99.90;;;;;;5037805;28;20228;-60
2023/06/20 04:21:02;;;;;;;8.07;7.27;;;21.80;99.90;;;;;;5038666;28;20704;-60
2023/06/20 04:23:29;;;;;;;8.97;7.50;;;21.90;99.90;;;;;;5038032;28;20240;-61
2023/06/20 04:25:56;;;;;;;10.23;7.00;;;21.90;99.90;;;;;;5034238;28;20196;-60
2023/06/20 04:28:23;;;;;;;8.23;7.00;;;21.90;99.90;;;;;;5032926;28;20204;-60
2023/06/20 04:30:52;;;;;;;9.83;7.70;;;21.80;99.90;;;;;;5040684;28;20293;-59
2023/06/20 04:33:19;;;;;;;7.80;7.07;;;21.80;99.90;;;;;;5014823;28;20221;-60
2023/06/20 04:35:46;;;;;;;8.50;7.27;;;21.70;99.90;;;;;;5028679;28;20292;-60
2023/06/20 04:38:13;;;;;;;8.57;7.67;;;21.70;99.90;;;;;;5021266;28;20260;-60
2023/06/20 04:40:41;;;;;;;10.90;8.23;;;21.70;99.90;;;;;;5036280;28;20226;-60
2023/06/20 04:43:08;;;;;;;11.50;8.07;;;21.60;99.90;;;;;;5034705;28;20195;-60
2023/06/20 04:45:38;;;;;;;9.57;7.83;;;21.70;99.90;;;;;;5040397;28;20211;-60
2023/06/20 04:48:05;;;;;;;12.27;8.73;;;21.80;99.90;;;;;;5037719;28;20730;-60
2023/06/20 04:50:33;;;;;;;10.33;8.80;;;21.80;99.90;;;;;;5019848;28;20194;-60
2023/06/20 04:53:00;;;;;;;13.67;8.10;;;21.80;99.90;;;;;;5021556;28;20200;-60
2023/06/20 04:55:27;;;;;;;11.20;8.33;;;21.70;99.90;;;;;;5036739;28;20224;-60
2023/06/20 04:57:56;;;;;;;13.37;9.40;;;21.70;99.90;;;;;;5035286;28;20239;-60
2023/06/20 05:00:23;;;;;;;10.50;9.23;;;21.70;99.90;;;;;;5012991;28;20211;-62
2023/06/20 05:02:50;;;;;;;13.97;9.57;;;21.80;99.90;;;;;;5037328;28;20684;-60
2023/06/20 05:05:19;;;;;;;11.37;9.07;;;21.80;99.90;;;;;;5038643;28;20676;-61
2023/06/20 05:07:46;;;;;;;13.67;9.23;;;21.90;99.90;;;;;;5041061;28;20666;-61
2023/06/20 05:10:13;;;;;;;11.10;8.90;;;22.00;99.90;;;;;;5036734;28;20200;-65
2023/06/20 05:12:40;;;;;;;12.60;9.27;;;21.90;99.90;;;;;;5039642;28;20208;-61
2023/06/20 05:15:07;;;;;;;10.70;9.53;;;22.10;99.90;;;;;;5039467;28;20211;-61
2023/06/20 05:17:35;;;;;;;11.93;9.17;;;22.30;99.90;;;;;;5035311;28;20739;-61
2023/06/20 05:20:05;;;;;;;10.60;9.07;;;22.40;99.90;;;;;;5036667;28;20627;-61
2023/06/20 05:22:33;;;;;;;10.50;9.40;;;22.50;99.90;;;;;;5039315;28;20208;-61
2023/06/20 05:25:00;;;;;;;13.90;10.20;;;22.60;99.90;;;;;;5014442;28;20255;-60
2023/06/20 05:27:27;;;;;;;11.57;10.37;;;22.70;99.90;;;;;;5031895;28;20680;-61
2023/06/20 05:29:54;;;;;;;12.00;10.60;;;22.80;99.90;;;;;;5019024;28;20206;-60
2023/06/20 05:32:21;;;;;;;12.07;10.07;;;22.70;99.90;;;;;;5012433;28;20232;-61
2023/06/20 05:34:48;;;;;;;13.70;10.77;;;22.80;99.90;;;;;;5033222;28;20387;-60
2023/06/20 05:37:16;;;;;;;19.60;10.87;;;23.00;99.90;;;;;;4677784;28;10000570;-61
2023/06/20 05:39:42;;;;;;;14.20;11.47;;;23.10;99.90;;;;;;5033542;28;20200;-65
2023/06/20 05:42:09;;;;;;;13.67;10.37;;;23.00;99.90;;;;;;5038055;28;20238;-61
2023/06/20 05:44:36;;;;;;;15.53;10.57;;;23.10;99.90;;;;;;5017068;28;21203;-61
2023/06/20 05:47:04;;;;;;;11.63;10.43;;;23.10;99.90;;;;;;5025631;28;20205;-62
2023/06/20 05:49:32;;;;;;;16.03;11.13;;;23.30;99.90;;;;;;5039118;28;20204;-65
2023/06/20 05:51:59;;;;;;;13.37;10.40;;;23.50;99.90;;;;;;5040372;28;20996;-60
2023/06/20 05:54:26;;;;;;;12.37;11.10;;;23.50;99.90;;;;;;5038438;28;20203;-61
2023/06/20 05:56:55;;;;;;;12.23;10.77;;;23.40;99.90;;;;;;5037157;28;20200;-61
2023/06/20 05:59:22;;;;;;;13.10;11.67;;;23.30;99.90;;;;;;5037577;28;20696;-61
2023/06/20 06:01:49;;;;;;;11.93;10.73;;;23.40;99.90;;;;;;5034933;28;20673;-62
2023/06/20 06:04:16;;;;;;;11.90;10.57;;;23.50;99.90;;;;;;5022456;28;20196;-61
2023/06/20 06:06:44;;;;;;;12.30;11.00;;;23.50;99.90;;;;;;5036336;28;20193;-60
2023/06/20 06:09:11;;;;;;;11.70;9.80;;;23.50;99.90;;;;;;5012271;28;20206;-62
2023/06/20 06:11:38;;;;;;;11.03;9.73;;;23.50;99.90;;;;;;5012921;28;20212;-60
2023/06/20 06:14:05;;;;;;;11.90;10.03;;;23.50;99.90;;;;;;5033720;28;20205;-61
2023/06/20 06:16:32;;;;;;;12.83;9.80;;;23.60;99.90;;;;;;5034439;28;20728;-60
2023/06/20 06:19:00;;;;;;;12.97;8.97;;;23.70;99.90;;;;;;5016344;28;20584;-60
2023/06/20 06:21:27;;;;;;;13.53;10.43;;;23.80;99.90;;;;;;5023611;28;20722;-62
2023/06/20 06:23:54;;;;;;;10.27;9.17;;;23.70;99.90;;;;;;5021397;28;20257;-61
2023/06/20 06:26:21;;;;;;;12.30;9.73;;;23.50;99.90;;;;;;5039171;28;20241;-61
2023/06/20 06:28:48;;;;;;;12.47;9.50;;;23.60;99.90;;;;;;5037662;28;20195;-61
2023/06/20 06:31:21;;;;;;;11.27;9.80;;;23.70;99.90;;;;;;5039456;28;20204;-61
2023/06/20 06:33:48;;;;;;;10.80;9.63;;;23.80;99.90;;;;;;5021482;28;20756;-60
2023/06/20 06:36:16;;;;;;;13.10;9.57;;;23.90;99.90;;;;;;5018565;28;20200;-60
2023/06/20 06:38:48;;;;;;;12.77;9.83;;;23.90;99.90;;;;;;5038301;28;20715;-60
2023/06/20 06:41:17;;;;;;;12.13;10.00;;;24.00;99.90;;;;;;5039028;28;20204;-60
2023/06/20 06:43:45;;;;;;;11.63;10.43;;;23.70;99.90;;;;;;5040016;28;20416;-61
2023/06/20 06:46:12;;;;;;;12.70;10.23;;;23.90;99.90;;;;;;5039180;28;20211;-61
2023/06/20 06:48:39;;;;;;;11.83;10.43;;;23.80;99.90;;;;;;5023366;28;20200;-61
2023/06/20 06:51:06;;;;;;;11.37;10.17;;;23.70;99.90;;;;;;5039895;28;21118;-61
2023/06/20 06:53:33;;;;;;;12.13;8.60;;;23.80;99.90;;;;;;5038903;28;20206;-62
2023/06/20 06:56:00;;;;;;;10.60;9.30;;;24.10;99.90;;;;;;5036130;28;20286;-61
2023/06/20 06:58:27;;;;;;;14.00;9.83;;;24.20;99.90;;;;;;5037536;28;20662;-61
2023/06/20 07:00:54;;;;;;;11.57;10.47;;;24.50;99.90;;;;;;5040747;28;20775;-61
2023/06/20 07:03:21;;;;;;;10.57;8.57;;;24.70;99.90;;;;;;5040577;28;20216;-61
2023/06/20 07:05:48;;;;;;;10.73;9.33;;;24.70;99.90;;;;;;5039642;28;20246;-61
2023/06/20 07:08:15;;;;;;;9.23;8.33;;;24.70;99.90;;;;;;5015653;28;20201;-61
2023/06/20 07:10:42;;;;;;;10.13;9.13;;;24.40;99.90;;;;;;4677302;28;10000416;-61
2023/06/20 07:13:09;;;;;;;11.90;9.67;;;24.20;99.90;;;;;;5030565;28;20200;-61
2023/06/20 07:15:36;;;;;;;10.97;9.87;;;24.10;99.90;;;;;;5034658;28;20200;-60
2023/06/20 07:18:02;;;;;;;11.67;9.97;;;24.10;99.90;;;;;;5040882;28;20231;-61
2023/06/20 07:20:29;;;;;;;11.70;10.20;;;24.20;99.90;;;;;;5018197;28;20203;-60
2023/06/20 07:22:56;;;;;;;13.07;11.27;;;24.60;99.90;;;;;;5031924;28;20222;-60
2023/06/20 07:25:23;;;;;;;17.33;12.00;;;24.70;99.90;;;;;;5027807;28;20200;-60
2023/06/20 07:27:50;;;;;;;14.40;12.40;;;24.80;99.90;;;;;;5041830;28;20213;-60
2023/06/20 07:30:17;;;;;;;14.90;12.73;;;25.10;99.90;;;;;;5043686;28;20204;-61
2023/06/20 07:32:44;;;;;;;14.23;12.83;;;25.30;99.90;;;;;;5026183;28;20195;-60
2023/06/20 07:35:11;;;;;;;15.47;12.40;;;25.60;99.90;;;;;;5043447;28;20207;-60
2023/06/20 07:37:40;;;;;;;17.23;12.90;;;25.60;99.90;;;;;;5022437;28;20206;-59
2023/06/20 07:40:07;;;;;;;15.70;12.40;;;25.50;99.90;;;;;;5041302;28;20215;-60
2023/06/20 07:42:34;;;;;;;12.40;11.03;;;26.00;99.90;;;;;;5027049;28;20216;-59
2023/06/20 07:45:01;;;;;;;13.93;12.33;;;26.50;99.90;;;;;;5044157;28;20211;-60
2023/06/20 07:47:28;;;;;;;12.73;11.40;;;26.40;99.90;;;;;;5044312;28;20211;-59
2023/06/20 07:49:55;;;;;;;14.55;10.60;;;27.10;99.90;;;;;;5041164;28;20204;-59
2023/06/20 07:52:22;;;;;;;14.25;12.30;;;27.40;99.90;;;;;;5043098;28;20231;-59
2023/06/20 07:54:49;;;;;;;12.65;11.43;;;27.20;99.90;;;;;;5040838;28;20640;-62
2023/06/20 07:57:15;;;;;;;14.48;12.70;;;27.70;99.90;;;;;;5014406;28;20208;-59
2023/06/20 07:59:42;;;;;;;14.68;13.15;;;28.00;99.90;;;;;;5035512;28;20259;-60
2023/06/20 08:02:09;;;;;;;13.30;11.32;;;27.90;99.90;;;;;;5038102;28;20220;-63
2023/06/20 08:04:36;;;;;;;12.52;9.95;;;28.20;99.90;;;;;;5036742;28;20736;-59
2023/06/20 08:07:03;;;;;;;11.60;10.35;;;28.40;99.90;;;;;;5032829;28;20565;-59
2023/06/20 08:09:30;;;;;;;13.63;12.18;;;28.20;99.90;;;;;;5036960;28;20196;-59
2023/06/20 08:11:57;;;;;;;15.50;12.23;;;28.30;99.90;;;;;;5037036;28;20667;-61
2023/06/20 08:14:24;;;;;;;15.07;12.85;;;28.10;99.90;;;;;;5026169;28;20233;-59
2023/06/20 08:16:51;;;;;;;10.65;8.90;;;27.90;99.90;;;;;;5041958;28;20203;-59
2023/06/20 08:19:18;;;;;;;9.40;7.38;;;28.50;99.90;;;;;;5010084;28;20247;-59
2023/06/20 08:21:44;;;;;;;7.07;6.47;;;28.80;99.90;;;;;;5020452;28;20274;-59
2023/06/20 08:24:11;;;;;;;11.27;7.50;;;29.10;99.90;;;;;;5045719;28;20238;-59
2023/06/20 08:26:38;;;;;;;8.23;7.40;;;28.60;99.90;;;;;;5005147;28;20194;-59
2023/06/20 08:29:08;;;;;;;8.60;6.83;;;28.30;99.90;;;;;;5043080;28;20990;-59
2023/06/20 08:31:38;;;;;;;6.10;5.60;;;28.60;99.90;;;;;;5034867;28;20276;-59
2023/06/20 08:34:05;;;;;;;8.47;5.20;;;28.70;99.90;;;;;;5031552;28;20270;-59
2023/06/20 08:36:32;;;;;;;6.55;5.63;;;29.70;99.90;;;;;;5035640;28;20734;-59
2023/06/20 08:39:00;;;;;;;5.00;4.50;;;30.00;99.90;;;;;;5037963;28;20192;-60
2023/06/20 08:41:28;;;;;;;6.00;4.90;;;30.20;99.90;;;;;;5027069;28;20208;-59
2023/06/20 08:43:55;;;;;;;5.03;4.43;;;30.00;99.90;;;;;;5030859;28;20259;-59
2023/06/20 08:46:25;;;;;;;6.05;4.97;;;29.30;99.90;;;;;;5040024;28;20200;-59
2023/06/20 08:48:52;;;;;;;5.28;4.78;;;29.20;99.90;;;;;;5036702;28;20226;-59
2023/06/20 08:51:23;;;;;;;5.05;4.40;;;29.00;99.90;;;;;;5021648;28;20197;-59
2023/06/20 08:53:52;;;;;;;4.93;4.53;;;29.30;99.90;;;;;;5036276;28;20516;-62
2023/06/20 08:56:20;;;;;;;6.00;5.30;;;29.60;99.90;;;;;;5027321;28;20200;-61
2023/06/20 08:58:47;;;;;;;7.13;4.80;;;29.80;99.90;;;;;;5035048;28;20578;-59
2023/06/20 09:01:14;;;;;;;6.57;5.13;;;29.80;99.90;;;;;;5020771;28;20205;-59
2023/06/20 09:03:41;;;;;;;5.07;4.60;;;29.30;99.90;;;;;;5041479;28;20273;-59
2023/06/20 09:06:08;;;;;;;4.72;4.25;;;28.90;99.90;;;;;;5036717;28;20680;-59
2023/06/20 09:08:39;;;;;;;7.28;4.68;;;29.90;99.90;;;;;;5034305;28;20204;-60
2023/06/20 09:11:12;;;;;;;5.93;4.75;;;30.50;99.90;;;;;;5042007;28;20228;-61
2023/06/20 09:13:41;;;;;;;5.57;5.13;;;29.90;99.90;;;;;;5035060;28;20220;-62
2023/06/20 09:16:09;;;;;;;4.45;4.15;;;29.60;99.90;;;;;;5015494;28;20291;-61
2023/06/20 09:18:40;;;;;;;5.85;5.25;;;30.00;99.90;;;;;;5039557;28;20578;-60
2023/06/20 09:21:15;;;;;;;5.82;4.88;;;29.60;99.90;;;;;;5038072;28;20233;-60
2023/06/20 09:23:42;;;;;;;5.20;4.70;;;29.60;99.90;;;;;;5019155;28;20753;-61
2023/06/20 09:26:17;;;;;;;5.85;4.65;;;30.00;99.90;;;;;;5036917;28;20680;-60
2023/06/20 09:28:44;;;;;;;4.65;3.72;;;29.30;99.90;;;;;;5041323;28;20211;-61
2023/06/20 09:31:13;;;;;;;7.03;5.10;;;29.30;99.90;;;;;;5036715;28;20208;-60
2023/06/20 09:33:41;;;;;;;4.68;4.28;;;29.10;99.90;;;;;;5035059;28;20307;-60
2023/06/20 09:36:17;;;;;;;4.97;4.47;;;29.50;99.90;;;;;;5019789;28;20197;-60
2023/06/20 09:38:52;;;;;;;3.97;3.50;;;29.50;99.90;;;;;;5035296;28;20204;-61
2023/06/20 09:41:19;;;;;;;4.13;3.72;;;29.90;99.90;;;;;;5035415;28;20242;-61
2023/06/20 09:43:46;;;;;;;4.30;3.90;;;30.10;99.90;;;;;;5038366;28;20224;-63
2023/06/20 09:46:13;;;;;;;4.00;3.65;;;29.50;99.90;;;;;;5024423;28;20208;-61
2023/06/20 09:48:42;;;;;;;4.38;3.50;;;29.60;99.90;;;;;;5041420;28;20672;-59
2023/06/20 09:51:09;;;;;;;5.38;3.65;;;29.90;99.90;;;;;;5040213;28;20282;-59
2023/06/20 09:54:01;;;;;;;4.03;3.63;;;29.50;99.90;;;;;;5038752;28;20228;-61
2023/06/20 09:56:29;;;;;;;4.00;3.05;;;29.70;99.90;;;;;;5030441;28;20211;-59
2023/06/20 09:59:00;;;;;;;3.53;3.22;;;30.70;99.90;;;;;;5040096;28;20622;-59
2023/06/20 10:01:29;;;;;;;3.55;3.25;;;30.60;99.90;;;;;;5022672;28;20219;-59
2023/06/20 10:03:57;;;;;;;3.80;3.50;;;29.60;99.90;;;;;;5041138;28;20215;-59
2023/06/20 10:06:24;;;;;;;5.15;3.55;;;29.10;99.90;;;;;;5040535;28;20204;-59
2023/06/20 10:08:52;;;;;;;5.60;3.00;;;29.10;99.90;;;;;;5038155;28;20188;-60
2023/06/20 10:11:21;;;;;;;3.30;3.00;;;29.60;99.90;;;;;;5036772;28;20254;-61
2023/06/20 10:13:49;;;;;;;4.18;3.00;;;29.80;99.90;;;;;;5041703;28;20701;-67
2023/06/20 10:16:16;;;;;;;5.82;3.40;;;29.90;99.90;;;;;;5040638;28;20200;-59
2023/06/20 10:18:43;;;;;;;7.97;3.33;;;29.10;99.90;;;;;;5039175;28;20224;-63
2023/06/20 10:21:14;;;;;;;4.75;3.30;;;29.30;99.90;;;;;;5040194;28;20265;-61
2023/06/20 10:23:41;;;;;;;3.47;3.17;;;29.80;99.90;;;;;;5040539;28;20240;-59
2023/06/20 10:26:10;;;;;;;3.85;3.45;;;29.40;99.90;;;;;;5029551;28;20196;-61
2023/06/20 10:28:38;;;;;;;3.58;3.28;;;29.50;99.90;;;;;;5035652;28;20251;-62
2023/06/20 10:31:05;;;;;;;4.03;3.60;;;29.20;99.90;;;;;;5039672;28;20208;-58
2023/06/20 10:33:34;;;;;;;3.83;3.28;;;29.10;99.90;;;;;;5037340;28;20254;-60
2023/06/20 10:36:11;;;;;;;3.33;3.08;;;29.50;99.90;;;;;;5034542;28;20231;-59
2023/06/20 10:38:59;;;;;;;4.80;3.92;;;29.70;99.90;;;;;;5037301;28;20219;-58
2023/06/20 10:41:27;;;;;;;3.85;3.55;;;29.60;99.90;;;;;;5035053;28;20221;-61
2023/06/20 10:44:01;;;;;;;3.20;2.92;;;29.70;99.90;;;;;;5023146;28;20236;-58
2023/06/20 10:46:36;;;;;;;4.20;3.80;;;30.20;99.90;;;;;;5039015;28;20199;-58
2023/06/20 10:49:05;;;;;;;3.38;3.13;;;30.30;99.90;;;;;;5040241;28;20578;-61
2023/06/20 10:51:53;;;;;;;8.82;3.30;;;30.20;99.90;;;;;;5038252;28;20196;-64
2023/06/20 10:54:21;;;;;;;3.60;3.30;;;30.60;99.90;;;;;;5039108;28;20586;-60
2023/06/20 10:56:48;;;;;;;5.47;3.40;;;30.60;99.90;;;;;;5037331;28;20204;-61
2023/06/20 10:59:19;;;;;;;3.97;3.58;;;29.70;99.90;;;;;;5035032;28;20200;-61
2023/06/20 11:01:47;;;;;;;4.65;3.78;;;29.90;99.90;;;;;;5039284;28;20292;-61
2023/06/20 11:04:16;;;;;;;4.53;3.80;;;29.90;99.90;;;;;;5019740;28;20223;-63
2023/06/20 11:06:44;;;;;;;6.20;3.50;;;29.80;99.90;;;;;;5021740;28;20199;-61
2023/06/20 11:09:17;;;;;;;3.92;3.63;;;30.40;99.90;;;;;;5038912;28;20207;-60
2023/06/20 11:11:44;;;;;;;3.50;3.20;;;30.70;99.90;;;;;;5038938;28;20226;-64
2023/06/20 11:14:23;;;;;;;6.75;3.15;;;30.50;99.90;;;;;;5040118;28;20197;-62
2023/06/20 11:16:51;;;;;;;4.05;2.92;;;30.90;99.90;;;;;;5018125;28;20288;-60
2023/06/20 11:19:22;;;;;;;6.38;3.80;;;31.40;99.90;;;;;;5039367;28;20216;-62
2023/06/20 11:22:02;;;;;;;3.38;3.03;;;31.90;99.90;;;;;;5039579;28;20208;-62
2023/06/20 11:24:31;;;;;;;3.40;3.10;;;31.80;99.90;;;;;;5039482;28;20231;-60
2023/06/20 11:27:14;;;;;;;5.07;3.30;;;32.20;99.90;;;;;;5038635;28;20708;-60
2023/06/20 11:29:42;;;;;;;3.83;2.38;;;31.90;99.90;;;;;;5039156;28;20288;-60
2023/06/20 11:32:10;;;;;;;2.50;2.30;;;32.20;99.90;;;;;;5038145;28;20346;-61
2023/06/20 11:35:08;;;;;;;4.28;2.58;;;31.90;99.90;;;;;;5038737;28;20214;-61
2023/06/20 11:37:35;;;;;;;3.35;2.67;;;31.60;99.90;;;;;;5011030;28;20223;-60
2023/06/20 11:40:11;;;;;;;2.90;2.60;;;32.00;99.90;;;;;;5037865;28;20214;-59
2023/06/20 11:42:38;;;;;;;3.95;2.80;;;33.70;99.90;;;;;;5035057;28;20212;-60
2023/06/20 11:45:12;;;;;;;3.63;2.20;;;33.90;99.90;;;;;;5039596;28;20201;-60
2023/06/20 11:47:39;;;;;;;2.42;2.22;;;33.00;99.90;;;;;;5038285;28;20250;-60
2023/06/20 11:50:21;;;;;;;3.33;2.50;;;32.00;99.90;;;;;;5039267;28;20247;-61
2023/06/20 11:52:56;;;;;;;3.65;2.70;;;32.90;99.90;;;;;;5036060;28;20266;-60
2023/06/20 11:55:53;;;;;;;3.00;2.15;;;32.70;99.90;;;;;;5020091;28;20950;-60
2023/06/20 11:58:20;;;;;;;2.38;2.10;;;33.60;99.90;;;;;;5038013;28;20204;-60
2023/06/20 12:01:02;;;;;;;2.60;2.40;;;33.50;99.90;;;;;;5030488;28;20200;-60
2023/06/20 12:03:29;;;;;;;3.45;2.22;;;33.90;99.90;;;;;;5018665;28;20216;-60
2023/06/20 12:05:56;;;;;;;2.58;2.13;;;33.50;99.90;;;;;;5040922;28;20227;-60
2023/06/20 12:08:25;;;;;;;4.10;2.35;;;32.80;99.90;;;;;;5041430;28;20231;-60
2023/06/20 12:11:03;;;;;;;2.38;2.17;;;33.10;99.90;;;;;;5026293;28;20197;-60
2023/06/20 12:13:32;;;;;;;2.83;2.10;;;33.70;99.90;;;;;;5043139;28;20200;-60
2023/06/20 12:15:59;;;;;;;3.65;2.00;;;34.30;99.90;;;;;;5028721;28;20201;-60
2023/06/20 12:18:26;;;;;;;2.25;2.05;;;34.40;99.90;;;;;;5039841;28;20636;-60
2023/06/20 12:20:53;;;;;;;2.00;1.80;;;33.60;99.90;;;;;;5037895;28;20640;-59
2023/06/20 12:23:23;;;;;;;2.10;1.90;;;34.10;99.90;;;;;;5033468;28;20301;-61
2023/06/20 12:25:51;;;;;;;2.30;2.10;;;33.90;99.90;;;;;;5040218;28;20262;-60
2023/06/20 12:28:18;;;;;;;2.28;2.08;;;33.50;99.90;;;;;;5037091;28;20219;-63
2023/06/20 12:30:45;;;;;;;2.53;2.15;;;33.10;99.90;;;;;;5036057;28;20200;-60
2023/06/20 12:33:12;;;;;;;3.20;1.92;;;33.70;99.90;;;;;;5039551;28;20200;-59
2023/06/20 12:35:40;;;;;;;2.17;1.98;;;33.30;99.90;;;;;;5040678;28;21577;-60
2023/06/20 12:38:07;;;;;;;4.10;2.42;;;33.20;99.90;;;;;;5035903;28;20672;-64
2023/06/20 12:40:33;;;;;;;2.38;2.17;;;32.70;99.90;;;;;;5040260;28;20278;-63
2023/06/20 12:43:00;;;;;;;3.88;2.00;;;33.10;99.90;;;;;;5038714;28;20261;-60
2023/06/20 12:45:28;;;;;;;2.35;1.90;;;33.10;99.90;;;;;;5034244;28;20685;-59
2023/06/20 12:47:54;;;;;;;3.00;1.95;;;33.30;99.90;;;;;;5035957;28;20209;-60
2023/06/20 12:50:21;;;;;;;2.30;2.10;;;32.90;99.90;;;;;;5037922;28;20651;-60
2023/06/20 12:52:48;;;;;;;2.72;1.90;;;32.30;99.90;;;;;;5031965;28;20205;-60
2023/06/20 12:55:15;;;;;;;2.17;1.98;;;32.60;99.90;;;;;;5041050;28;20196;-60